Time;durP1;ratioP1;P1;durP2;ratioP2;P2;SDS_P1;SDS_P2;PMS_P1;PMS_P2;Temp;Humidity;BMP_temperature;BMP_pressure;BME280_temperature;BME280_humidity;BME280_pressure;Samples;Min_cycle;Max_cycle;Signal;HPM_P1;HPM_P2
2022/08/27 00:02:07;;;;;;;5.00;2.10;;;17.30;99.90;;;;;;5030217;28;20115;-30
2022/08/27 00:04:34;;;;;;;3.67;2.10;;;17.30;99.90;;;;;;5031018;28;20519;-32
2022/08/27 00:07:01;;;;;;;8.27;2.50;;;17.20;99.90;;;;;;5030213;28;20042;-31
2022/08/27 00:09:28;;;;;;;7.22;2.45;;;17.20;99.90;;;;;;5030783;28;20034;-30
2022/08/27 00:11:54;;;;;;;5.05;2.30;;;17.10;99.90;;;;;;5030620;28;20042;-31
2022/08/27 00:14:21;;;;;;;6.88;2.63;;;17.10;99.90;;;;;;5030819;28;20495;-29
2022/08/27 00:16:47;;;;;;;6.22;2.40;;;17.10;99.90;;;;;;5030568;28;20046;-31
2022/08/27 00:19:12;;;;;;;4.85;2.70;;;17.10;99.90;;;;;;5030622;28;20042;-29
2022/08/27 00:21:38;;;;;;;5.78;2.67;;;17.10;99.90;;;;;;5030590;28;20041;-29
2022/08/27 00:24:04;;;;;;;4.13;2.58;;;17.00;99.90;;;;;;5013661;28;20524;-31
2022/08/27 00:26:30;;;;;;;7.75;2.72;;;17.00;99.90;;;;;;5030292;28;20041;-31
2022/08/27 00:28:56;;;;;;;7.15;2.83;;;17.00;99.90;;;;;;5030319;28;20041;-29
2022/08/27 00:31:22;;;;;;;3.70;2.50;;;16.90;99.90;;;;;;5014007;28;20100;-29
2022/08/27 00:33:48;;;;;;;5.18;2.55;;;16.90;99.90;;;;;;5030557;28;20065;-30
2022/08/27 00:36:14;;;;;;;5.47;2.72;;;16.90;99.90;;;;;;5030506;28;20073;-29
2022/08/27 00:38:40;;;;;;;6.68;2.90;;;16.90;99.90;;;;;;5030488;28;20099;-30
2022/08/27 00:41:09;;;;;;;6.03;2.50;;;16.80;99.90;;;;;;5030231;28;20033;-30
2022/08/27 00:43:49;;;;;;;7.60;2.40;;;16.80;99.90;;;;;;5030493;28;20117;-30
2022/08/27 00:46:33;;;;;;;6.22;2.67;;;16.80;99.90;;;;;;5030291;28;20030;-29
2022/08/27 00:49:17;;;;;;;4.57;2.67;;;16.80;99.90;;;;;;5030402;28;20041;-30
2022/08/27 00:51:51;;;;;;;;;;;16.80;99.90;;;;;;5030562;28;20104;-29
2022/08/27 00:54:17;;;;;;;5.47;2.35;;;16.70;99.90;;;;;;5032182;28;19917;-30
2022/08/27 00:56:45;;;;;;;4.63;2.88;;;16.70;99.90;;;;;;5033803;28;20048;-30
2022/08/27 00:59:14;;;;;;;5.30;2.65;;;16.70;99.90;;;;;;5033748;28;20120;-28
2022/08/27 01:04:29;;;;;;;4.35;2.72;;;16.70;99.90;;;;;;5035043;28;20049;-30
2022/08/27 01:06:55;;;;;;;5.38;2.65;;;16.70;99.90;;;;;;5033453;28;20037;-31
2022/08/27 01:09:22;;;;;;;6.78;3.08;;;16.70;99.90;;;;;;5033265;28;20041;-30
2022/08/27 01:11:48;;;;;;;3.78;2.50;;;16.70;99.90;;;;;;5033404;28;20470;-29
2022/08/27 01:14:16;;;;;;;3.72;2.65;;;16.60;99.90;;;;;;5033410;28;20041;-31
2022/08/27 01:16:51;;;;;;;6.00;3.65;;;16.60;99.90;;;;;;5033705;28;20072;-31
2022/08/27 01:19:25;;;;;;;7.25;2.95;;;16.60;99.90;;;;;;5037484;28;20057;-29
2022/08/27 01:22:02;;;;;;;5.10;3.13;;;16.60;99.90;;;;;;5027561;28;20076;-30
2022/08/27 01:24:42;;;;;;;5.40;2.60;;;16.60;99.90;;;;;;5030038;28;20034;-29
2022/08/27 01:27:12;;;;;;;7.20;2.80;;;16.60;99.90;;;;;;5013510;28;20045;-30
2022/08/27 01:29:39;;;;;;;7.13;3.20;;;16.50;99.90;;;;;;5013566;28;20580;-30
2022/08/27 01:32:20;;;;;;;6.97;3.08;;;16.50;99.90;;;;;;5013349;28;20125;-29
2022/08/27 01:34:47;;;;;;;6.03;2.70;;;16.40;99.90;;;;;;4997033;28;20115;-30
2022/08/27 01:37:15;;;;;;;4.43;2.70;;;16.40;99.90;;;;;;5013348;28;20137;-29
2022/08/27 01:39:41;;;;;;;4.55;2.65;;;16.40;99.90;;;;;;5029559;28;20049;-29
2022/08/27 01:42:19;;;;;;;7.85;2.70;;;16.40;99.90;;;;;;5013049;28;20641;-30
2022/08/27 01:44:51;;;;;;;4.38;3.33;;;16.40;99.90;;;;;;5013201;28;20049;-30
2022/08/27 01:47:19;;;;;;;4.35;2.88;;;16.30;99.90;;;;;;5013106;28;20057;-30
2022/08/27 01:49:46;;;;;;;5.60;2.85;;;16.30;99.90;;;;;;5012758;28;20041;-30
2022/08/27 01:52:15;;;;;;;4.47;3.20;;;16.30;99.90;;;;;;5014133;28;20045;-29
2022/08/27 01:54:42;;;;;;;4.57;2.80;;;16.30;99.90;;;;;;5013918;28;20056;-30
2022/08/27 01:57:08;;;;;;;3.05;2.75;;;16.30;99.90;;;;;;4996424;28;20148;-29
2022/08/27 01:59:34;;;;;;;4.88;2.97;;;16.20;99.90;;;;;;5029373;28;20053;-29
2022/08/27 02:02:04;;;;;;;4.30;2.67;;;16.20;99.90;;;;;;5014060;28;20380;-29
2022/08/27 02:04:30;;;;;;;4.20;2.88;;;16.20;99.90;;;;;;5012654;28;20107;-30
2022/08/27 02:06:57;;;;;;;5.63;2.97;;;16.20;99.90;;;;;;5012400;28;20442;-30
2022/08/27 02:09:24;;;;;;;5.63;3.05;;;16.30;99.90;;;;;;5012961;28;20113;-31
2022/08/27 02:11:51;;;;;;;5.45;2.58;;;16.30;99.90;;;;;;5012761;28;20042;-30
2022/08/27 02:14:17;;;;;;;4.45;2.70;;;16.30;99.90;;;;;;5012909;28;20042;-30
2022/08/27 02:16:43;;;;;;;4.53;2.50;;;16.30;99.90;;;;;;5012345;28;20045;-29
2022/08/27 02:19:09;;;;;;;7.30;2.95;;;16.30;99.90;;;;;;5012602;28;20046;-30
2022/08/27 02:21:35;;;;;;;4.10;2.55;;;16.20;99.90;;;;;;5014031;28;20413;-30
2022/08/27 02:24:01;;;;;;;3.03;2.28;;;16.20;99.90;;;;;;5012349;28;20046;-31
2022/08/27 02:26:27;;;;;;;6.55;2.83;;;16.20;99.90;;;;;;5012547;28;20526;-29
2022/08/27 02:28:53;;;;;;;5.25;2.47;;;16.20;99.90;;;;;;5012360;28;20080;-29
2022/08/27 02:31:20;;;;;;;4.05;2.17;;;16.20;99.90;;;;;;5012150;28;20042;-29
2022/08/27 02:33:46;;;;;;;4.90;2.33;;;16.10;99.90;;;;;;5012272;28;20387;-31
2022/08/27 02:36:12;;;;;;;3.17;2.58;;;16.10;99.90;;;;;;5012455;28;20034;-31
2022/08/27 02:38:39;;;;;;;4.07;2.40;;;16.10;99.90;;;;;;5011773;28;20030;-30
2022/08/27 02:41:05;;;;;;;5.18;2.53;;;16.10;99.90;;;;;;4995537;28;20045;-30
2022/08/27 02:43:31;;;;;;;2.67;2.28;;;16.10;99.90;;;;;;5012281;28;20037;-29
2022/08/27 02:45:57;;;;;;;4.07;2.25;;;16.00;99.90;;;;;;5011800;28;20045;-30
2022/08/27 02:48:24;;;;;;;7.07;2.20;;;16.00;99.90;;;;;;4995850;28;20488;-30
2022/08/27 02:50:50;;;;;;;3.30;2.35;;;16.00;99.90;;;;;;5011553;28;20041;-29
2022/08/27 02:53:17;;;;;;;8.07;2.58;;;16.00;99.90;;;;;;5011684;28;20037;-29
2022/08/27 02:55:44;;;;;;;5.00;2.88;;;16.00;99.90;;;;;;5016465;28;20130;-30
2022/08/27 02:58:11;;;;;;;4.60;2.28;;;16.10;99.90;;;;;;5031649;28;20124;-30
2022/08/27 03:00:37;;;;;;;3.47;2.38;;;16.10;99.90;;;;;;5031506;28;20037;-30
2022/08/27 03:03:03;;;;;;;4.10;2.03;;;16.10;99.90;;;;;;5031287;28;20048;-29
2022/08/27 03:05:29;;;;;;;3.70;2.33;;;16.10;99.90;;;;;;5032871;28;20049;-30
2022/08/27 03:07:54;;;;;;;5.38;2.28;;;16.10;99.90;;;;;;5014873;28;20087;-30
2022/08/27 03:10:21;;;;;;;3.35;2.00;;;16.10;99.90;;;;;;5031090;28;20380;-30
2022/08/27 03:12:47;;;;;;;4.28;2.08;;;16.10;99.90;;;;;;5030970;28;20073;-30
2022/08/27 03:15:15;;;;;;;4.85;2.30;;;16.10;99.90;;;;;;5031636;28;20084;-30
2022/08/27 03:20:26;;;;;;;5.10;2.25;;;16.20;99.90;;;;;;5032328;28;20045;-30
2022/08/27 03:22:52;;;;;;;4.88;2.30;;;16.20;99.90;;;;;;5031236;28;20077;-30
2022/08/27 03:25:19;;;;;;;3.28;2.17;;;16.20;99.90;;;;;;5047974;28;20045;-29
2022/08/27 03:27:44;;;;;;;4.90;2.13;;;16.20;99.90;;;;;;5031103;28;20040;-30
2022/08/27 03:30:16;;;;;;;4.78;2.40;;;16.20;99.90;;;;;;5031019;28;20120;-29
2022/08/27 03:32:42;;;;;;;6.72;2.40;;;16.20;99.90;;;;;;5031492;28;20095;-30
2022/08/27 03:35:10;;;;;;;3.05;2.17;;;16.10;99.90;;;;;;5031333;28;20037;-30
2022/08/27 03:37:36;;;;;;;5.88;2.47;;;16.10;99.90;;;;;;5031474;28;20043;-30
2022/08/27 03:40:04;;;;;;;7.10;2.40;;;16.00;99.90;;;;;;5023654;28;20104;-31
2022/08/27 03:42:29;;;;;;;6.75;2.55;;;15.90;99.90;;;;;;5030975;28;20048;-32
2022/08/27 03:44:56;;;;;;;6.82;2.40;;;15.80;99.90;;;;;;5030960;28;20045;-31
2022/08/27 03:47:22;;;;;;;5.82;2.72;;;15.70;99.90;;;;;;5020591;28;20041;-32
2022/08/27 03:49:48;;;;;;;4.65;2.78;;;15.60;99.90;;;;;;5030118;28;20499;-32
2022/08/27 03:52:14;;;;;;;5.47;2.47;;;15.60;99.90;;;;;;5033711;28;20041;-34
2022/08/27 03:54:40;;;;;;;6.40;2.50;;;15.50;99.90;;;;;;5047053;28;20445;-31
2022/08/27 03:57:06;;;;;;;5.30;2.40;;;15.50;99.90;;;;;;5031240;28;20083;-30
2022/08/27 03:59:32;;;;;;;4.07;2.42;;;15.40;99.90;;;;;;5019382;28;20046;-31
2022/08/27 04:01:58;;;;;;;5.03;2.75;;;15.40;99.90;;;;;;5040239;28;20092;-30
2022/08/27 04:04:24;;;;;;;4.13;2.50;;;15.40;99.90;;;;;;5025499;28;20092;-32
2022/08/27 04:06:51;;;;;;;5.05;2.38;;;15.50;99.90;;;;;;5021348;28;20069;-31
2022/08/27 04:09:17;;;;;;;6.65;2.38;;;15.50;99.90;;;;;;5041246;28;20047;-31
2022/08/27 04:11:43;;;;;;;5.43;2.30;;;15.50;99.90;;;;;;5030093;28;20034;-31
2022/08/27 04:14:09;;;;;;;6.40;2.63;;;15.60;99.90;;;;;;5042170;28;20041;-32
2022/08/27 04:16:35;;;;;;;5.55;2.28;;;15.60;99.90;;;;;;5036323;28;20402;-31
2022/08/27 04:19:02;;;;;;;4.70;2.45;;;15.60;99.90;;;;;;5030242;28;20478;-32
2022/08/27 04:21:28;;;;;;;4.68;2.58;;;15.50;99.90;;;;;;5030068;28;20395;-31
2022/08/27 04:23:55;;;;;;;2.85;2.40;;;15.50;99.90;;;;;;5026806;28;20037;-35
2022/08/27 04:26:21;;;;;;;3.85;2.75;;;15.50;99.90;;;;;;5046298;28;20029;-32
2022/08/27 04:28:47;;;;;;;6.07;2.80;;;15.50;99.90;;;;;;5031597;28;20034;-33
2022/08/27 04:31:13;;;;;;;6.15;3.00;;;15.50;99.90;;;;;;5031058;28;20045;-31
2022/08/27 04:33:39;;;;;;;6.63;2.67;;;15.40;99.90;;;;;;5030976;28;20502;-31
2022/08/27 04:36:08;;;;;;;4.80;2.70;;;15.50;99.90;;;;;;5045708;28;20040;-31
2022/08/27 04:38:35;;;;;;;4.38;2.80;;;15.40;99.90;;;;;;5033356;28;20026;-30
2022/08/27 04:41:20;;;;;;;4.65;2.50;;;15.40;99.90;;;;;;5043911;28;20040;-31
2022/08/27 04:43:55;;;;;;;7.43;2.90;;;15.40;99.90;;;;;;5022292;28;20073;-30
2022/08/27 04:46:39;;;;;;;5.70;3.10;;;15.30;99.90;;;;;;5036768;28;20030;-30
2022/08/27 04:49:08;;;;;;;6.35;3.25;;;15.30;99.90;;;;;;5033084;28;20363;-33
2022/08/27 04:51:35;;;;;;;4.93;3.15;;;15.30;99.90;;;;;;5032226;28;20037;-32
2022/08/27 04:54:02;;;;;;;6.35;2.92;;;15.20;99.90;;;;;;5034930;28;20037;-31
2022/08/27 04:56:33;;;;;;;6.63;2.83;;;15.10;99.90;;;;;;5036657;28;20389;-31
2022/08/27 04:59:02;;;;;;;3.22;2.90;;;15.10;99.90;;;;;;5037594;28;20033;-31
2022/08/27 05:01:29;;;;;;;5.90;3.13;;;15.00;99.90;;;;;;5019820;28;20522;-32
2022/08/27 05:03:56;;;;;;;6.28;3.10;;;15.00;99.90;;;;;;5047287;28;20038;-31
2022/08/27 05:06:23;;;;;;;7.38;3.53;;;14.90;99.90;;;;;;5047228;28;20555;-30
2022/08/27 05:08:51;;;;;;;5.20;3.05;;;14.90;99.90;;;;;;5043106;28;20029;-32
2022/08/27 05:11:19;;;;;;;5.95;2.88;;;14.90;99.90;;;;;;5024783;28;20469;-30
2022/08/27 05:13:46;;;;;;;4.80;3.28;;;14.90;99.90;;;;;;5055936;28;20037;-30
2022/08/27 05:16:19;;;;;;;4.70;2.95;;;14.90;99.90;;;;;;5036623;28;20045;-30
2022/08/27 05:18:46;;;;;;;4.93;2.92;;;14.90;99.90;;;;;;5027606;28;20042;-32
2022/08/27 05:21:17;;;;;;;7.22;3.58;;;14.90;99.90;;;;;;5028562;28;20047;-30
2022/08/27 05:23:43;;;;;;;7.55;2.90;;;14.90;99.90;;;;;;5050579;28;20068;-31
2022/08/27 05:26:08;;;;;;;8.00;3.25;;;14.90;99.90;;;;;;5033991;28;20037;-33
2022/08/27 05:28:35;;;;;;;5.03;2.95;;;14.90;99.90;;;;;;5029425;28;20041;-31
2022/08/27 05:31:07;;;;;;;6.45;2.65;;;14.90;99.90;;;;;;5032636;28;20046;-32
2022/08/27 05:33:33;;;;;;;4.13;2.63;;;14.90;99.90;;;;;;5049548;28;20091;-31
2022/08/27 05:36:00;;;;;;;7.55;3.10;;;14.90;99.90;;;;;;5032737;28;20045;-32
2022/08/27 05:38:28;;;;;;;6.68;3.03;;;14.90;99.90;;;;;;5019076;28;20414;-31
2022/08/27 05:41:26;;;;;;;7.88;3.20;;;15.00;99.90;;;;;;5031674;28;20041;-32
2022/08/27 05:43:53;;;;;;;3.42;2.50;;;15.00;99.90;;;;;;5027708;28;20100;-32
2022/08/27 05:46:22;;;;;;;4.38;2.67;;;15.00;99.90;;;;;;5034135;28;20041;-32
2022/08/27 05:48:49;;;;;;;6.18;2.63;;;15.00;99.90;;;;;;5034101;28;20082;-31
2022/08/27 05:51:27;;;;;;;4.70;2.83;;;15.00;99.90;;;;;;5023755;28;20038;-31
2022/08/27 05:54:17;;;;;;;9.20;2.97;;;15.10;99.90;;;;;;5028301;28;20121;-31
2022/08/27 05:56:43;;;;;;;3.55;2.70;;;15.10;99.90;;;;;;5032032;28;20087;-32
2022/08/27 06:01:55;;;;;;;4.63;2.70;;;15.20;99.90;;;;;;5041684;28;20041;-33
2022/08/27 06:04:23;;;;;;;5.55;2.50;;;15.30;99.90;;;;;;5039417;28;20199;-34
2022/08/27 06:06:50;;;;;;;6.15;2.60;;;15.30;99.90;;;;;;5025098;28;20453;-31
2022/08/27 06:09:19;;;;;;;4.18;2.20;;;15.40;99.90;;;;;;5034159;28;20116;-32
2022/08/27 06:11:46;;;;;;;6.00;2.75;;;15.40;99.90;;;;;;5025891;28;20128;-31
2022/08/27 06:14:12;;;;;;;4.97;2.30;;;15.50;99.90;;;;;;5053165;28;20041;-31
2022/08/27 06:16:39;;;;;;;4.70;2.35;;;15.50;99.90;;;;;;5020023;28;20037;-32
2022/08/27 06:19:07;;;;;;;7.20;2.53;;;15.60;99.90;;;;;;5032248;28;20026;-32
2022/08/27 06:21:33;;;;;;;5.38;2.25;;;15.60;99.90;;;;;;5031308;28;20037;-32
2022/08/27 06:24:00;;;;;;;4.32;2.70;;;15.60;99.90;;;;;;5024750;28;20059;-32
2022/08/27 06:26:27;;;;;;;4.00;2.20;;;15.70;99.90;;;;;;5036002;28;20033;-32
2022/08/27 06:28:53;;;;;;;5.57;2.47;;;15.80;99.90;;;;;;5043708;28;20487;-30
2022/08/27 06:31:25;;;;;;;4.00;2.03;;;15.80;99.90;;;;;;5014004;28;20042;-32
2022/08/27 06:33:52;;;;;;;5.32;2.58;;;15.90;99.90;;;;;;5030980;28;20371;-31
2022/08/27 06:36:22;;;;;;;4.07;2.17;;;16.00;99.90;;;;;;5025504;28;20038;-32
2022/08/27 06:38:48;;;;;;;6.07;2.17;;;16.10;99.90;;;;;;5027896;28;20029;-30
2022/08/27 06:41:18;;;;;;;3.47;2.38;;;16.20;99.90;;;;;;5038613;28;20045;-32
2022/08/27 06:43:44;;;;;;;5.30;2.20;;;16.30;99.90;;;;;;5036359;28;20423;-32
2022/08/27 06:46:13;;;;;;;3.45;2.05;;;16.30;99.90;;;;;;5015102;28;20037;-32
2022/08/27 06:48:39;;;;;;;6.20;2.50;;;16.40;99.90;;;;;;5029248;28;20041;-32
2022/08/27 06:51:30;;;;;;;4.50;2.17;;;16.50;99.90;;;;;;5029380;28;20044;-31
2022/08/27 06:53:58;;;;;;;3.35;2.10;;;16.50;99.90;;;;;;5012116;28;20076;-32
2022/08/27 06:56:24;;;;;;;5.47;2.85;;;16.60;99.90;;;;;;5028501;28;20033;-32
2022/08/27 06:58:55;;;;;;;4.20;2.10;;;16.70;99.90;;;;;;5031520;28;20043;-33
2022/08/27 07:01:24;;;;;;;6.20;2.17;;;16.80;99.90;;;;;;5018894;28;20026;-33
2022/08/27 07:03:52;;;;;;;4.13;1.75;;;16.90;99.90;;;;;;5040629;28;20041;-32
2022/08/27 07:06:18;;;;;;;5.50;2.58;;;17.00;99.90;;;;;;5026801;28;20033;-35
2022/08/27 07:08:45;;;;;;;7.35;2.20;;;17.10;99.90;;;;;;5016965;28;20518;-31
2022/08/27 07:11:13;;;;;;;6.93;2.42;;;17.20;99.90;;;;;;5013688;28;20037;-32
2022/08/27 07:13:40;;;;;;;3.67;2.65;;;17.40;99.90;;;;;;5030076;28;20080;-32
2022/08/27 07:16:08;;;;;;;5.03;2.20;;;17.50;99.90;;;;;;5030163;28;20546;-31
2022/08/27 07:18:34;;;;;;;6.93;2.33;;;17.60;99.90;;;;;;5019961;28;20034;-32
2022/08/27 07:21:05;;;;;;;6.38;2.70;;;17.80;99.90;;;;;;5038859;28;20041;-32
2022/08/27 07:23:32;;;;;;;8.18;2.30;;;17.90;99.90;;;;;;5026581;28;20045;-31
2022/08/27 07:25:59;;;;;;;3.75;1.95;;;18.00;99.90;;;;;;5018563;28;20045;-32
2022/08/27 07:28:25;;;;;;;3.97;1.80;;;18.10;99.90;;;;;;5016973;28;20053;-32
2022/08/27 07:30:52;;;;;;;5.35;2.17;;;18.30;99.90;;;;;;5027621;28;20167;-32
2022/08/27 07:33:18;;;;;;;5.18;2.17;;;18.50;99.90;;;;;;5026826;28;20422;-32
2022/08/27 07:35:45;;;;;;;3.38;1.85;;;18.60;99.90;;;;;;5029868;28;20029;-32
2022/08/27 07:38:11;;;;;;;3.65;1.85;;;18.70;99.90;;;;;;5042298;28;20069;-34
2022/08/27 07:40:38;;;;;;;5.70;2.17;;;18.80;99.90;;;;;;5041142;28;20460;-33
2022/08/27 07:45:55;;;;;;;6.03;1.90;;;19.10;99.90;;;;;;5023002;28;20088;-32
2022/08/27 07:48:24;;;;;;;5.03;2.45;;;19.30;99.90;;;;;;5024537;28;20044;-33
2022/08/27 07:50:51;;;;;;;5.40;2.00;;;19.40;99.90;;;;;;5019429;28;20042;-32
2022/08/27 07:53:18;;;;;;;7.10;2.72;;;19.50;99.90;;;;;;5023877;28;20029;-32
2022/08/27 07:55:44;;;;;;;4.35;2.17;;;19.70;99.90;;;;;;5029381;28;20033;-33
2022/08/27 07:58:11;;;;;;;3.78;1.67;;;19.90;99.90;;;;;;5021457;28;20034;-32
2022/08/27 08:00:43;;;;;;;5.32;1.70;;;20.10;99.90;;;;;;5035656;28;20037;-32
2022/08/27 08:03:10;;;;;;;5.88;1.92;;;20.30;99.90;;;;;;5042727;28;20041;-33
2022/08/27 08:05:43;;;;;;;8.82;2.15;;;20.40;99.90;;;;;;5039724;28;20044;-33
2022/08/27 08:08:10;;;;;;;3.55;1.70;;;20.60;99.90;;;;;;5028001;28;20042;-34
2022/08/27 08:10:37;;;;;;;6.38;2.03;;;20.70;99.90;;;;;;5027971;28;20063;-35
2022/08/27 08:13:04;;;;;;;4.07;1.63;;;20.80;99.90;;;;;;5032637;28;20426;-32
2022/08/27 08:15:30;;;;;;;5.40;1.63;;;21.00;99.90;;;;;;5022497;28;20422;-32
2022/08/27 08:17:56;;;;;;;3.95;1.80;;;21.20;99.90;;;;;;5048286;28;20041;-32
2022/08/27 08:20:22;;;;;;;3.33;1.63;;;21.60;99.90;;;;;;5042248;28;20038;-30
2022/08/27 08:22:51;;;;;;;5.47;1.55;;;21.90;99.90;;;;;;5027826;28;20509;-31
2022/08/27 08:25:17;;;;;;;2.83;1.40;;;22.10;99.90;;;;;;5030653;28;20053;-30
2022/08/27 08:27:42;;;;;;;5.03;1.70;;;22.50;99.90;;;;;;5031437;28;20045;-30
2022/08/27 08:30:10;;;;;;;5.10;1.92;;;22.50;99.90;;;;;;5042427;28;20034;-30
2022/08/27 08:32:36;;;;;;;6.68;1.60;;;22.30;99.90;;;;;;5044505;28;20088;-30
2022/08/27 08:35:04;;;;;;;6.15;1.65;;;22.20;99.90;;;;;;5012995;28;20064;-30
2022/08/27 08:37:30;;;;;;;5.00;1.70;;;21.80;99.90;;;;;;5030339;28;20045;-30
2022/08/27 08:39:55;;;;;;;6.70;1.52;;;21.70;99.90;;;;;;5030595;28;20040;-30
2022/08/27 08:42:35;;;;;;;5.60;2.03;;;21.50;99.90;;;;;;5031408;28;20041;-30
2022/08/27 08:45:05;;;;;;;5.10;1.80;;;21.40;99.90;;;;;;5032726;28;20091;-30
2022/08/27 08:47:51;;;;;;;5.25;1.38;;;21.50;99.90;;;;;;5033324;28;20049;-31
2022/08/27 08:50:29;;;;;;;8.63;1.63;;;21.60;99.90;;;;;;5029304;28;20045;-31
2022/08/27 08:53:03;;;;;;;5.32;2.05;;;21.70;99.90;;;;;;5014013;28;20025;-30
2022/08/27 08:55:50;;;;;;;6.55;1.60;;;21.80;99.90;;;;;;5019217;28;20072;-31
2022/08/27 08:58:34;;;;;;;5.80;1.40;;;22.20;99.90;;;;;;5040244;28;20422;-30
2022/08/27 09:01:04;;;;;;;5.97;1.85;;;22.40;99.90;;;;;;5028820;28;20037;-30
2022/08/27 09:03:34;;;;;;;3.45;1.40;;;22.40;99.90;;;;;;5036422;28;20406;-31
2022/08/27 09:06:29;;;;;;;6.90;2.05;;;22.30;99.90;;;;;;5030295;28;20041;-31
2022/08/27 09:09:02;;;;;;;5.28;1.60;;;22.00;99.90;;;;;;5026880;28;20044;-30
2022/08/27 09:11:42;;;;;;;5.43;1.60;;;21.70;99.90;;;;;;5030494;28;20380;-31
2022/08/27 09:14:14;;;;;;;3.08;1.25;;;21.60;99.90;;;;;;5025971;28;20041;-30
2022/08/27 09:16:39;;;;;;;5.28;1.98;;;21.40;99.90;;;;;;5028645;28;20042;-30
2022/08/27 09:19:06;;;;;;;5.35;1.80;;;21.30;99.90;;;;;;5047503;28;20115;-30
2022/08/27 09:21:44;;;;;;;4.25;1.90;;;21.20;99.90;;;;;;5030382;28;20033;-30
2022/08/27 09:24:35;;;;;;;5.22;1.42;;;21.10;99.90;;;;;;5048588;28;20033;-31
2022/08/27 09:27:01;;;;;;;7.65;1.40;;;21.00;99.90;;;;;;5047974;28;20034;-31
2022/08/27 09:29:29;;;;;;;4.38;1.77;;;20.80;99.90;;;;;;5023335;28;20049;-31
2022/08/27 09:31:56;;;;;;;6.75;1.92;;;20.80;99.90;;;;;;5025187;28;20068;-30
2022/08/27 09:34:24;;;;;;;4.55;1.60;;;20.80;99.90;;;;;;5024860;28;20038;-30
2022/08/27 09:37:08;;;;;;;4.25;1.55;;;20.80;99.90;;;;;;5020089;28;20482;-29
2022/08/27 09:39:45;;;;;;;5.93;1.75;;;20.90;99.90;;;;;;5019523;28;20042;-31
2022/08/27 09:42:22;;;;;;;4.30;2.10;;;20.90;99.90;;;;;;5025773;28;20372;-29
2022/08/27 09:44:48;;;;;;;4.70;1.55;;;21.00;99.90;;;;;;5030231;28;20593;-30
2022/08/27 09:47:14;;;;;;;4.35;1.50;;;21.10;99.90;;;;;;5039108;28;20049;-31
2022/08/27 09:49:40;;;;;;;6.32;2.20;;;21.20;99.90;;;;;;5030438;28;20040;-31
2022/08/27 09:52:23;;;;;;;3.72;1.42;;;21.20;99.90;;;;;;5029049;28;20033;-33
2022/08/27 09:54:54;;;;;;;4.00;1.70;;;21.30;99.90;;;;;;5016086;28;20254;-32
2022/08/27 09:57:39;;;;;;;4.60;1.27;;;21.30;99.90;;;;;;5021476;28;20044;-32
2022/08/27 10:00:15;;;;;;;6.40;1.77;;;21.40;99.90;;;;;;5024015;28;20096;-31
2022/08/27 10:02:53;;;;;;;3.92;1.30;;;21.60;99.90;;;;;;5031244;28;20087;-32
2022/08/27 10:05:36;;;;;;;4.65;1.60;;;21.80;99.90;;;;;;5025156;28;20036;-34
2022/08/27 10:08:12;;;;;;;5.78;1.75;;;22.60;99.90;;;;;;5031181;28;20046;-33
2022/08/27 10:10:53;;;;;;;5.20;1.70;;;23.10;99.90;;;;;;5025260;28;20467;-33
2022/08/27 10:13:41;;;;;;;3.92;1.50;;;23.20;99.90;;;;;;5021693;28;20065;-34
2022/08/27 10:16:13;;;;;;;3.90;1.40;;;23.30;99.90;;;;;;5004476;28;20049;-35
2022/08/27 10:19:03;;;;;;;5.32;1.42;;;23.20;99.90;;;;;;5031340;28;20387;-33
2022/08/27 10:21:40;;;;;;;4.55;1.40;;;23.20;99.50;;;;;;5027112;28;20030;-33
2022/08/27 10:24:26;;;;;;;4.07;1.48;;;23.20;98.80;;;;;;5034047;28;20041;-32
2022/08/27 10:27:10;;;;;;;6.93;1.48;;;23.20;99.90;;;;;;5025046;28;20124;-31
2022/08/27 10:29:41;;;;;;;3.10;1.48;;;23.10;99.90;;;;;;5022379;28;20068;-32
2022/08/27 10:32:24;;;;;;;4.65;1.52;;;23.00;99.50;;;;;;5027118;28;20037;-34
2022/08/27 10:34:58;;;;;;;3.70;1.63;;;22.90;99.00;;;;;;5035060;28;20403;-33
2022/08/27 10:37:47;;;;;;;4.18;1.50;;;22.80;99.80;;;;;;5032587;28;20437;-33
2022/08/27 10:40:30;;;;;;;6.15;1.90;;;23.10;99.90;;;;;;5044098;28;20479;-34
2022/08/27 10:43:34;;;;;;;4.88;1.40;;;24.10;99.90;;;;;;5019060;28;20041;-32
2022/08/27 10:46:17;;;;;;;4.45;1.58;;;25.20;95.60;;;;;;5051508;28;20045;-33
2022/08/27 10:48:55;;;;;;;3.90;1.30;;;25.10;96.10;;;;;;5048463;28;20033;-34
2022/08/27 10:51:31;;;;;;;5.45;1.50;;;24.70;92.70;;;;;;5035665;28;20102;-32
2022/08/27 10:54:35;;;;;;;5.82;1.67;;;24.30;93.40;;;;;;5027858;28;20037;-32
2022/08/27 10:57:07;;;;;;;8.25;1.80;;;24.00;93.70;;;;;;5022887;28;20160;-36
2022/08/27 10:59:53;;;;;;;4.47;1.57;;;23.90;93.80;;;;;;5050572;28;20045;-32
2022/08/27 11:02:42;;;;;;;6.35;1.70;;;23.60;93.00;;;;;;5023036;28;20422;-33
2022/08/27 11:05:19;;;;;;;4.78;1.60;;;23.50;95.10;;;;;;5019617;28;20102;-33
2022/08/27 11:07:54;;;;;;;3.92;1.70;;;23.40;96.50;;;;;;5017534;28;20049;-32
2022/08/27 11:10:24;;;;;;;3.22;1.45;;;23.40;96.30;;;;;;5013578;28;20049;-33
2022/08/27 11:13:04;;;;;;;7.70;1.73;;;23.50;96.70;;;;;;5043889;28;20037;-33
2022/08/27 11:15:33;;;;;;;4.97;1.50;;;23.50;96.00;;;;;;5028429;28;20037;-32
2022/08/27 11:18:20;;;;;;;4.22;1.30;;;23.50;95.40;;;;;;5028417;28;20044;-34
2022/08/27 11:21:13;;;;;;;5.40;1.50;;;23.60;96.00;;;;;;5032346;28;20053;-34
2022/08/27 11:23:44;;;;;;;4.07;1.45;;;23.70;94.20;;;;;;4976704;28;20049;-34
2022/08/27 11:26:11;;;;;;;3.95;1.27;;;23.80;94.60;;;;;;5025693;28;20537;-33
2022/08/27 11:28:38;;;;;;;4.18;1.40;;;23.90;93.00;;;;;;5033034;28;20418;-34
2022/08/27 11:31:09;;;;;;;5.20;1.60;;;24.20;92.20;;;;;;5034198;28;20478;-33
2022/08/27 11:33:34;;;;;;;6.72;1.80;;;24.80;94.00;;;;;;5052477;28;20037;-33
2022/08/27 11:36:29;;;;;;;6.47;1.75;;;25.20;92.60;;;;;;5052650;28;20395;-33
2022/08/27 11:39:32;;;;;;;8.70;1.60;;;25.30;87.00;;;;;;5030561;28;20034;-32
2022/08/27 11:42:14;;;;;;;6.20;2.28;;;25.30;82.90;;;;;;5055146;28;20132;-33
2022/08/27 11:44:45;;;;;;;3.30;1.38;;;25.10;73.70;;;;;;5031005;28;20045;-33
2022/08/27 11:47:21;;;;;;;7.78;1.70;;;25.00;81.00;;;;;;5051969;28;20112;-33
2022/08/27 11:49:54;;;;;;;4.07;1.60;;;24.80;77.90;;;;;;5023813;28;20033;-32
2022/08/27 11:52:52;;;;;;;5.20;1.50;;;24.50;85.20;;;;;;5036075;28;20041;-32
2022/08/27 11:55:20;;;;;;;4.78;1.63;;;24.40;82.10;;;;;;5042920;28;20044;-33
2022/08/27 11:58:06;;;;;;;4.30;1.73;;;24.20;86.80;;;;;;5038070;28;20037;-33
2022/08/27 12:00:36;;;;;;;4.47;1.63;;;24.10;87.80;;;;;;5039608;28;20052;-31
2022/08/27 12:03:09;;;;;;;4.60;1.58;;;23.90;88.90;;;;;;5048493;28;20044;-33
2022/08/27 12:05:43;;;;;;;5.32;1.40;;;24.00;87.40;;;;;;5027136;28;20037;-34
2022/08/27 12:08:20;;;;;;;3.70;1.38;;;24.00;89.60;;;;;;5023879;28;20042;-33
2022/08/27 12:10:52;;;;;;;7.35;1.55;;;24.20;90.00;;;;;;5031642;28;20112;-33
2022/08/27 12:13:32;;;;;;;3.60;1.83;;;24.40;88.90;;;;;;5038390;28;20064;-33
2022/08/27 12:16:12;;;;;;;4.25;1.60;;;24.70;81.20;;;;;;5051369;28;20597;-34
2022/08/27 12:18:58;;;;;;;2.70;1.25;;;25.10;83.50;;;;;;5043242;28;20116;-32
2022/08/27 12:21:43;;;;;;;5.07;1.55;;;25.40;82.20;;;;;;5033167;28;20503;-35
2022/08/27 12:24:50;;;;;;;6.65;1.30;;;25.40;81.50;;;;;;5012592;28;20451;-31
2022/08/27 12:27:27;;;;;;;2.53;1.40;;;25.30;69.20;;;;;;5039716;28;20053;-34
2022/08/27 12:29:57;;;;;;;3.30;1.65;;;25.20;73.90;;;;;;5027123;28;20388;-32
2022/08/27 12:32:51;;;;;;;4.50;1.48;;;25.20;74.60;;;;;;5038112;28;20025;-35
2022/08/27 12:35:27;;;;;;;4.15;1.30;;;25.70;75.60;;;;;;5032198;28;20052;-31
2022/08/27 12:37:55;;;;;;;3.72;1.38;;;26.00;70.30;;;;;;5040074;28;20068;-32
2022/08/27 12:40:27;;;;;;;5.47;1.80;;;25.60;69.10;;;;;;5065452;28;20036;-32
2022/08/27 12:43:12;;;;;;;4.22;1.30;;;25.40;71.40;;;;;;5035631;28;20112;-33
2022/08/27 12:45:57;;;;;;;4.97;1.52;;;25.20;71.30;;;;;;5016356;28;20041;-33
2022/08/27 12:48:29;;;;;;;6.15;1.27;;;24.90;74.30;;;;;;5027928;28;20521;-34
2022/08/27 12:50:59;;;;;;;3.22;1.10;;;24.80;74.30;;;;;;5027042;28;20038;-35
2022/08/27 12:53:51;;;;;;;6.82;1.67;;;24.70;74.70;;;;;;5043570;28;20386;-33
2022/08/27 12:56:38;;;;;;;6.78;1.80;;;24.70;75.40;;;;;;5020907;28;20394;-36
2022/08/27 12:59:35;;;;;;;6.05;1.80;;;24.70;74.50;;;;;;5037694;28;20033;-31
2022/08/27 13:02:30;;;;;;;5.70;1.52;;;24.70;78.70;;;;;;5028248;28;20471;-32
2022/08/27 13:04:59;;;;;;;6.63;1.52;;;24.70;74.60;;;;;;5034663;28;20044;-34
2022/08/27 13:07:30;;;;;;;4.82;1.38;;;24.80;78.00;;;;;;5037923;28;20034;-33
2022/08/27 13:10:15;;;;;;;4.25;1.38;;;24.80;78.40;;;;;;5041894;28;20037;-35
2022/08/27 13:12:43;;;;;;;5.63;1.40;;;24.90;77.30;;;;;;5043823;28;20082;-34
2022/08/27 13:15:12;;;;;;;4.60;1.40;;;25.20;79.10;;;;;;5027873;28;20053;-33
2022/08/27 13:17:44;;;;;;;7.32;1.52;;;25.90;78.20;;;;;;5024468;28;20062;-34
2022/08/27 13:20:18;;;;;;;4.20;1.20;;;26.60;67.40;;;;;;5039415;28;20046;-33
2022/08/27 13:22:44;;;;;;;3.58;1.30;;;27.40;67.50;;;;;;5015146;28;20045;-35